sensor_id;sensor_type;location;lat;lon;timestamp;pressure;altitude;pressure_sealevel;temperature;humidity
47054;BME280;32811;52.382;5.270;2023-11-21T00:01:16;101170.94;;;5.99;100.00
47054;BME280;32811;52.382;5.270;2023-11-21T00:03:43;101172.66;;;6.00;100.00
47054;BME280;32811;52.382;5.270;2023-11-21T00:06:10;101163.16;;;5.96;100.00
47054;BME280;32811;52.382;5.270;2023-11-21T00:08:40;101159.06;;;6.02;100.00
47054;BME280;32811;52.382;5.270;2023-11-21T00:11:07;101172.13;;;6.10;100.00
47054;BME280;32811;52.382;5.270;2023-11-21T00:13:33;101176.53;;;6.16;100.00
47054;BME280;32811;52.382;5.270;2023-11-21T00:16:00;101176.53;;;6.16;100.00
47054;BME280;32811;52.382;5.270;2023-11-21T00:18:27;101178.34;;;6.20;100.00
47054;BME280;32811;52.382;5.270;2023-11-21T00:20:53;101177.63;;;6.24;100.00
47054;BME280;32811;52.382;5.270;2023-11-21T00:23:20;101176.94;;;6.31;100.00
47054;BME280;32811;52.382;5.270;2023-11-21T00:25:47;101178.72;;;6.34;100.00
47054;BME280;32811;52.382;5.270;2023-11-21T00:28:13;101177.13;;;6.37;100.00
47054;BME280;32811;52.382;5.270;2023-11-21T00:30:40;101190.94;;;6.42;100.00
47054;BME280;32811;52.382;5.270;2023-11-21T00:33:07;101181.41;;;6.38;100.00
47054;BME280;32811;52.382;5.270;2023-11-21T00:35:34;101178.16;;;6.44;100.00
47054;BME280;32811;52.382;5.270;2023-11-21T00:38:00;101191.16;;;6.50;100.00
47054;BME280;32811;52.382;5.270;2023-11-21T00:40:27;101188.59;;;6.52;100.00
47054;BME280;32811;52.382;5.270;2023-11-21T00:42:53;101190.41;;;6.54;100.00
47054;BME280;32811;52.382;5.270;2023-11-21T00:45:20;101188.72;;;6.55;100.00
47054;BME280;32811;52.382;5.270;2023-11-21T00:47:46;101185.28;;;6.54;100.00
47054;BME280;32811;52.382;5.270;2023-11-21T00:50:13;101190.53;;;6.59;100.00
47054;BME280;32811;52.382;5.270;2023-11-21T00:52:40;101192.25;;;6.60;100.00
47054;BME280;32811;52.382;5.270;2023-11-21T00:55:07;101200.00;;;6.63;100.00
47054;BME280;32811;52.382;5.270;2023-11-21T00:57:35;101200.09;;;6.66;100.00
47054;BME280;32811;52.382;5.270;2023-11-21T01:00:02;101200.16;;;6.68;100.00
47054;BME280;32811;52.382;5.270;2023-11-21T01:02:33;101195.84;;;6.67;100.00
47054;BME280;32811;52.382;5.270;2023-11-21T01:05:02;101198.34;;;6.65;100.00
47054;BME280;32811;52.382;5.270;2023-11-21T01:07:28;101219.22;;;6.77;100.00
47054;BME280;32811;52.382;5.270;2023-11-21T01:09:55;101213.16;;;6.75;100.00
47054;BME280;32811;52.382;5.270;2023-11-21T01:12:23;101213.25;;;6.78;100.00
47054;BME280;32811;52.382;5.270;2023-11-21T01:14:51;101212.53;;;6.84;100.00
47054;BME280;32811;52.382;5.270;2023-11-21T01:17:18;101216.88;;;6.86;100.00
47054;BME280;32811;52.382;5.270;2023-11-21T01:19:49;101220.47;;;6.93;100.00
47054;BME280;32811;52.382;5.270;2023-11-21T01:22:15;101214.38;;;6.90;100.00
47054;BME280;32811;52.382;5.270;2023-11-21T01:24:43;101213.47;;;6.88;100.00
47054;BME280;32811;52.382;5.270;2023-11-21T01:27:09;101221.44;;;6.97;100.00
47054;BME280;32811;52.382;5.270;2023-11-21T01:29:36;101225.56;;;6.92;100.00
47054;BME280;32811;52.382;5.270;2023-11-21T01:32:03;101230.84;;;6.98;100.00
47054;BME280;32811;52.382;5.270;2023-11-21T01:34:30;101240.38;;;7.02;100.00
47054;BME280;32811;52.382;5.270;2023-11-21T01:36:57;101229.94;;;6.96;100.00
47054;BME280;32811;52.382;5.270;2023-11-21T01:39:25;101236.78;;;6.95;100.00
47054;BME280;32811;52.382;5.270;2023-11-21T01:41:52;101244.66;;;7.03;100.00
47054;BME280;32811;52.382;5.270;2023-11-21T01:44:19;101243.84;;;7.04;100.00
47054;BME280;32811;52.382;5.270;2023-11-21T01:46:46;101233.53;;;7.02;100.00
47054;BME280;32811;52.382;5.270;2023-11-21T01:49:14;101241.22;;;7.02;100.00
47054;BME280;32811;52.382;5.270;2023-11-21T01:51:44;101253.28;;;7.05;100.00
47054;BME280;32811;52.382;5.270;2023-11-21T01:54:13;101245.50;;;7.02;100.00
47054;BME280;32811;52.382;5.270;2023-11-21T01:56:46;101255.03;;;7.06;100.00
47054;BME280;32811;52.382;5.270;2023-11-21T01:59:21;101252.47;;;7.06;100.00
47054;BME280;32811;52.382;5.270;2023-11-21T02:01:50;101244.66;;;7.01;100.00
47054;BME280;32811;52.382;5.270;2023-11-21T02:04:18;101252.34;;;7.03;100.00
47054;BME280;32811;52.382;5.270;2023-11-21T02:06:45;101249.84;;;7.04;100.00
47054;BME280;32811;52.382;5.270;2023-11-21T02:09:11;101254.19;;;7.07;100.00
47054;BME280;32811;52.382;5.270;2023-11-21T02:11:41;101262.78;;;7.09;100.00
47054;BME280;32811;52.382;5.270;2023-11-21T02:14:08;101266.25;;;7.11;100.00
47054;BME280;32811;52.382;5.270;2023-11-21T02:16:36;101272.25;;;7.12;100.00
47054;BME280;32811;52.382;5.270;2023-11-21T02:19:07;101266.03;;;7.02;100.00
47054;BME280;32811;52.382;5.270;2023-11-21T02:21:36;101268.66;;;7.05;100.00
47054;BME280;32811;52.382;5.270;2023-11-21T02:24:07;101276.38;;;7.05;100.00
47054;BME280;32811;52.382;5.270;2023-11-21T02:26:34;101275.47;;;7.03;100.00
47054;BME280;32811;52.382;5.270;2023-11-21T02:29:01;101269.50;;;7.04;100.00
47054;BME280;32811;52.382;5.270;2023-11-21T02:31:31;101272.03;;;7.02;100.00
47054;BME280;32811;52.382;5.270;2023-11-21T02:33:59;101275.56;;;7.06;100.00
47054;BME280;32811;52.382;5.270;2023-11-21T02:36:31;101278.13;;;7.06;100.00
47054;BME280;32811;52.382;5.270;2023-11-21T02:38:58;101277.25;;;7.05;100.00
47054;BME280;32811;52.382;5.270;2023-11-21T02:41:24;101273.00;;;7.06;100.00
47054;BME280;32811;52.382;5.270;2023-11-21T02:43:52;101279.78;;;7.04;100.00
47054;BME280;32811;52.382;5.270;2023-11-21T02:46:18;101263.41;;;7.00;100.00
47054;BME280;32811;52.382;5.270;2023-11-21T02:48:45;101272.13;;;7.05;100.00
47054;BME280;32811;52.382;5.270;2023-11-21T02:51:12;101275.56;;;7.06;100.00
47054;BME280;32811;52.382;5.270;2023-11-21T02:53:38;101276.41;;;7.06;100.00
47054;BME280;32811;52.382;5.270;2023-11-21T02:56:05;101274.72;;;7.07;100.00
47054;BME280;32811;52.382;5.270;2023-11-21T02:58:33;101279.97;;;7.12;100.00
47054;BME280;32811;52.382;5.270;2023-11-21T03:01:00;101273.91;;;7.08;100.00
47054;BME280;32811;52.382;5.270;2023-11-21T03:03:27;101284.34;;;7.16;100.00
47054;BME280;32811;52.382;5.270;2023-11-21T03:05:53;101286.13;;;7.18;100.00
47054;BME280;32811;52.382;5.270;2023-11-21T03:08:20;101276.59;;;7.14;100.00
47054;BME280;32811;52.382;5.270;2023-11-21T03:10:47;101276.75;;;7.20;100.00
47054;BME280;32811;52.382;5.270;2023-11-21T03:13:14;101271.47;;;7.14;100.00
47054;BME280;32811;52.382;5.270;2023-11-21T03:15:40;101287.06;;;7.22;100.00
47054;BME280;32811;52.382;5.270;2023-11-21T03:18:07;101292.28;;;7.25;100.00
47054;BME280;32811;52.382;5.270;2023-11-21T03:20:34;101288.84;;;7.24;100.00
47054;BME280;32811;52.382;5.270;2023-11-21T03:23:01;101293.19;;;7.27;100.00
47054;BME280;32811;52.382;5.270;2023-11-21T03:25:28;101288.09;;;7.28;100.00
47054;BME280;32811;52.382;5.270;2023-11-21T03:27:55;101286.47;;;7.32;100.00
47054;BME280;32811;52.382;5.270;2023-11-21T03:30:21;101302.03;;;7.38;100.00
47054;BME280;32811;52.382;5.270;2023-11-21T03:32:48;101299.50;;;7.40;100.00
47054;BME280;32811;52.382;5.270;2023-11-21T03:35:15;101298.66;;;7.41;100.00
47054;BME280;32811;52.382;5.270;2023-11-21T03:37:41;101297.00;;;7.41;100.00
47054;BME280;32811;52.382;5.270;2023-11-21T03:40:09;101311.78;;;7.52;100.00
47054;BME280;32811;52.382;5.270;2023-11-21T03:42:36;101314.38;;;7.53;100.00
47054;BME280;32811;52.382;5.270;2023-11-21T03:45:03;101308.28;;;7.48;100.00
47054;BME280;32811;52.382;5.270;2023-11-21T03:47:30;101319.53;;;7.53;100.00
47054;BME280;32811;52.382;5.270;2023-11-21T03:49:57;101302.25;;;7.47;100.00
47054;BME280;32811;52.382;5.270;2023-11-21T03:52:24;101313.44;;;7.49;100.00
47054;BME280;32811;52.382;5.270;2023-11-21T03:54:51;101316.88;;;7.50;100.00
47054;BME280;32811;52.382;5.270;2023-11-21T03:57:21;101327.13;;;7.50;100.00
47054;BME280;32811;52.382;5.270;2023-11-21T03:59:48;101330.59;;;7.51;100.00
47054;BME280;32811;52.382;5.270;2023-11-21T04:02:14;101333.06;;;7.47;100.00
47054;BME280;32811;52.382;5.270;2023-11-21T04:04:41;101332.28;;;7.50;100.00
47054;BME280;32811;52.382;5.270;2023-11-21T04:07:08;101333.16;;;7.51;100.00
47054;BME280;32811;52.382;5.270;2023-11-21T04:09:34;101334.78;;;7.47;100.00
47054;BME280;32811;52.382;5.270;2023-11-21T04:12:02;101325.38;;;7.47;100.00
47054;BME280;32811;52.382;5.270;2023-11-21T04:14:29;101341.03;;;7.58;100.00
47054;BME280;32811;52.382;5.270;2023-11-21T04:16:56;101341.09;;;7.60;100.00
47054;BME280;32811;52.382;5.270;2023-11-21T04:19:23;101336.78;;;7.59;100.00
47054;BME280;32811;52.382;5.270;2023-11-21T04:21:49;101345.44;;;7.62;100.00
47054;BME280;32811;52.382;5.270;2023-11-21T04:24:16;101354.00;;;7.61;100.00
47054;BME280;32811;52.382;5.270;2023-11-21T04:26:44;101360.91;;;7.64;100.00
47054;BME280;32811;52.382;5.270;2023-11-21T04:29:18;101356.63;;;7.64;100.00
47054;BME280;32811;52.382;5.270;2023-11-21T04:31:47;101357.59;;;7.68;100.00
47054;BME280;32811;52.382;5.270;2023-11-21T04:34:15;101361.91;;;7.71;100.00
47054;BME280;32811;52.382;5.270;2023-11-21T04:36:43;101362.78;;;7.71;100.00
47054;BME280;32811;52.382;5.270;2023-11-21T04:39:11;101366.31;;;7.76;100.00
47054;BME280;32811;52.382;5.270;2023-11-21T04:41:38;101366.44;;;7.81;100.00
47054;BME280;32811;52.382;5.270;2023-11-21T04:44:07;101382.06;;;7.90;100.00
47054;BME280;32811;52.382;5.270;2023-11-21T04:46:34;101372.81;;;7.97;100.00
47054;BME280;32811;52.382;5.270;2023-11-21T04:49:01;101380.63;;;8.01;100.00
47054;BME280;32811;52.382;5.270;2023-11-21T04:51:29;101377.22;;;8.02;100.00
47054;BME280;32811;52.382;5.270;2023-11-21T04:53:57;101380.72;;;8.06;100.00
47054;BME280;32811;52.382;5.270;2023-11-21T04:56:24;101385.22;;;8.13;100.00
47054;BME280;32811;52.382;5.270;2023-11-21T04:58:51;101398.00;;;8.11;100.00
47054;BME280;32811;52.382;5.270;2023-11-21T05:01:17;101393.66;;;8.09;100.00
47054;BME280;32811;52.382;5.270;2023-11-21T05:03:44;101384.94;;;8.02;100.00
47054;BME280;32811;52.382;5.270;2023-11-21T05:06:11;101401.44;;;8.12;100.00
47054;BME280;32811;52.382;5.270;2023-11-21T05:08:37;101406.69;;;8.17;100.00
47054;BME280;32811;52.382;5.270;2023-11-21T05:11:04;101401.56;;;8.17;100.00
47054;BME280;32811;52.382;5.270;2023-11-21T05:13:31;101404.34;;;8.26;100.00
47054;BME280;32811;52.382;5.270;2023-11-21T05:16:00;101394.94;;;8.28;100.00
47054;BME280;32811;52.382;5.270;2023-11-21T05:18:26;101406.34;;;8.39;100.00
47054;BME280;32811;52.382;5.270;2023-11-21T05:20:53;101412.38;;;8.40;100.00
47054;BME280;32811;52.382;5.270;2023-11-21T05:23:20;101409.00;;;8.41;100.00
47054;BME280;32811;52.382;5.270;2023-11-21T05:25:46;101408.19;;;8.42;100.00
47054;BME280;32811;52.382;5.270;2023-11-21T05:28:13;101412.47;;;8.43;100.00
47054;BME280;32811;52.382;5.270;2023-11-21T05:30:40;101407.38;;;8.44;100.00
47054;BME280;32811;52.382;5.270;2023-11-21T05:33:07;101419.38;;;8.45;100.00
47054;BME280;32811;52.382;5.270;2023-11-21T05:35:33;101419.44;;;8.47;100.00
47054;BME280;32811;52.382;5.270;2023-11-21T05:38:00;101413.34;;;8.43;100.00
47054;BME280;32811;52.382;5.270;2023-11-21T05:40:27;101430.78;;;8.57;100.00
47054;BME280;32811;52.382;5.270;2023-11-21T05:42:57;101434.31;;;8.60;100.00
47054;BME280;32811;52.382;5.270;2023-11-21T05:45:23;101439.56;;;8.65;100.00
47054;BME280;32811;52.382;5.270;2023-11-21T05:47:50;101438.69;;;8.64;100.00
47054;BME280;32811;52.382;5.270;2023-11-21T05:50:17;101441.28;;;8.66;100.00
47054;BME280;32811;52.382;5.270;2023-11-21T05:52:46;101431.78;;;8.62;100.00
47054;BME280;32811;52.382;5.270;2023-11-21T05:55:13;101444.81;;;8.69;100.00
47054;BME280;32811;52.382;5.270;2023-11-21T05:57:41;101451.75;;;8.73;100.00
47054;BME280;32811;52.382;5.270;2023-11-21T06:00:10;101461.34;;;8.81;100.00
47054;BME280;32811;52.382;5.270;2023-11-21T06:02:39;101457.06;;;8.81;100.00
47054;BME280;32811;52.382;5.270;2023-11-21T06:05:07;101464.75;;;8.80;100.00
47054;BME280;32811;52.382;5.270;2023-11-21T06:07:34;101464.78;;;8.81;100.00
47054;BME280;32811;52.382;5.270;2023-11-21T06:10:07;101465.75;;;8.86;100.00
47054;BME280;32811;52.382;5.270;2023-11-21T06:12:38;101463.16;;;8.85;100.00
47054;BME280;32811;52.382;5.270;2023-11-21T06:15:05;101479.63;;;8.93;100.00
47054;BME280;32811;52.382;5.270;2023-11-21T06:17:34;101476.22;;;8.94;100.00
47054;BME280;32811;52.382;5.270;2023-11-21T06:20:05;101483.06;;;8.93;100.00
47054;BME280;32811;52.382;5.270;2023-11-21T06:22:39;101489.03;;;8.92;100.00
47054;BME280;32811;52.382;5.270;2023-11-21T06:25:07;101483.94;;;8.94;100.00
47054;BME280;32811;52.382;5.270;2023-11-21T06:27:39;101483.19;;;9.00;100.00
47054;BME280;32811;52.382;5.270;2023-11-21T06:30:07;101496.13;;;9.03;100.00
47054;BME280;32811;52.382;5.270;2023-11-21T06:32:36;101488.41;;;9.03;100.00
47054;BME280;32811;52.382;5.270;2023-11-21T06:35:04;101490.91;;;8.98;100.00
47054;BME280;32811;52.382;5.270;2023-11-21T06:37:31;101502.09;;;9.02;100.00
47054;BME280;32811;52.382;5.270;2023-11-21T06:39:59;101503.91;;;9.06;100.00
47054;BME280;32811;52.382;5.270;2023-11-21T06:42:26;101501.34;;;9.04;100.00
47054;BME280;32811;52.382;5.270;2023-11-21T06:44:54;101508.25;;;9.08;100.00
47054;BME280;32811;52.382;5.270;2023-11-21T06:47:24;101508.94;;;9.00;100.00
47054;BME280;32811;52.382;5.270;2023-11-21T06:49:56;101526.34;;;9.10;100.00
47054;BME280;32811;52.382;5.270;2023-11-21T06:52:23;101520.28;;;9.08;100.00
47054;BME280;32811;52.382;5.270;2023-11-21T06:54:50;101519.47;;;9.10;100.00
47054;BME280;32811;52.382;5.270;2023-11-21T06:57:17;101528.94;;;9.11;100.00
47054;BME280;32811;52.382;5.270;2023-11-21T06:59:44;101535.78;;;9.09;100.00
47054;BME280;32811;52.382;5.270;2023-11-21T07:02:11;101545.22;;;9.09;100.00
47054;BME280;32811;52.382;5.270;2023-11-21T07:04:38;101544.16;;;9.01;100.00
47054;BME280;32811;52.382;5.270;2023-11-21T07:07:06;101553.72;;;9.06;100.00
47054;BME280;32811;52.382;5.270;2023-11-21T07:09:33;101557.13;;;9.05;100.00
47054;BME280;32811;52.382;5.270;2023-11-21T07:12:00;101555.31;;;9.01;100.00
47054;BME280;32811;52.382;5.270;2023-11-21T07:14:28;101562.22;;;9.02;100.00
47054;BME280;32811;52.382;5.270;2023-11-21T07:16:54;101565.66;;;9.03;100.00
47054;BME280;32811;52.382;5.270;2023-11-21T07:19:21;101557.09;;;9.04;100.00
47054;BME280;32811;52.382;5.270;2023-11-21T07:21:48;101556.13;;;8.99;100.00
47054;BME280;32811;52.382;5.270;2023-11-21T07:24:18;101566.44;;;8.99;100.00
47054;BME280;32811;52.382;5.270;2023-11-21T07:26:44;101569.94;;;9.02;100.00
47054;BME280;32811;52.382;5.270;2023-11-21T07:29:11;101571.56;;;8.99;100.00
47054;BME280;32811;52.382;5.270;2023-11-21T07:31:38;101593.03;;;8.99;100.00
47054;BME280;32811;52.382;5.270;2023-11-21T07:34:05;101591.31;;;8.98;100.00
47054;BME280;32811;52.382;5.270;2023-11-21T07:36:32;101602.44;;;8.97;100.00
47054;BME280;32811;52.382;5.270;2023-11-21T07:38:59;101599.84;;;8.97;100.00
47054;BME280;32811;52.382;5.270;2023-11-21T07:41:26;101606.78;;;9.00;100.00
47054;BME280;32811;52.382;5.270;2023-11-21T07:43:57;101612.81;;;9.00;100.00
47054;BME280;32811;52.382;5.270;2023-11-21T07:46:26;101622.22;;;9.00;100.00
47054;BME280;32811;52.382;5.270;2023-11-21T07:48:53;101614.44;;;8.97;100.00
47054;BME280;32811;52.382;5.270;2023-11-21T07:51:21;101619.53;;;8.95;100.00
47054;BME280;32811;52.382;5.270;2023-11-21T07:53:48;101623.91;;;8.98;100.00
47054;BME280;32811;52.382;5.270;2023-11-21T07:56:16;101636.06;;;9.03;100.00
47054;BME280;32811;52.382;5.270;2023-11-21T07:58:42;101634.22;;;8.99;100.00
47054;BME280;32811;52.382;5.270;2023-11-21T08:01:09;101652.38;;;9.04;100.00
47054;BME280;32811;52.382;5.270;2023-11-21T08:03:36;101649.78;;;9.04;100.00
47054;BME280;32811;52.382;5.270;2023-11-21T08:06:03;101656.75;;;9.08;100.00
47054;BME280;32811;52.382;5.270;2023-11-21T08:08:33;101667.09;;;9.09;100.00
47054;BME280;32811;52.382;5.270;2023-11-21T08:10:59;101656.75;;;9.08;100.00
47054;BME280;32811;52.382;5.270;2023-11-21T08:13:29;101674.03;;;9.12;100.00
47054;BME280;32811;52.382;5.270;2023-11-21T08:15:58;101688.78;;;9.18;100.00
47054;BME280;32811;52.382;5.270;2023-11-21T08:18:31;101687.81;;;9.14;100.00
47054;BME280;32811;52.382;5.270;2023-11-21T08:20:58;101688.78;;;9.19;100.00
47054;BME280;32811;52.382;5.270;2023-11-21T08:23:25;101705.91;;;9.16;100.00
47054;BME280;32811;52.382;5.270;2023-11-21T08:25:53;101706.66;;;9.13;100.00
47054;BME280;32811;52.382;5.270;2023-11-21T08:28:20;101697.06;;;9.06;100.00
47054;BME280;32811;52.382;5.270;2023-11-21T08:30:53;101713.38;;;9.06;100.00
47054;BME280;32811;52.382;5.270;2023-11-21T08:33:21;101719.38;;;9.05;100.00
47054;BME280;32811;52.382;5.270;2023-11-21T08:35:48;101723.66;;;9.05;100.00
47054;BME280;32811;52.382;5.270;2023-11-21T08:38:15;101727.94;;;9.04;100.00
47054;BME280;32811;52.382;5.270;2023-11-21T08:40:41;101732.28;;;9.07;100.00
47054;BME280;32811;52.382;5.270;2023-11-21T08:43:08;101737.34;;;9.04;100.00
47054;BME280;32811;52.382;5.270;2023-11-21T08:45:35;101749.47;;;9.08;100.00
47054;BME280;32811;52.382;5.270;2023-11-21T08:48:02;101748.66;;;9.10;100.00
47054;BME280;32811;52.382;5.270;2023-11-21T08:50:29;101759.72;;;9.06;100.00
47054;BME280;32811;52.382;5.270;2023-11-21T08:52:55;101758.97;;;9.10;100.00
47054;BME280;32811;52.382;5.270;2023-11-21T08:55:23;101770.75;;;9.01;100.00
47054;BME280;32811;52.382;5.270;2023-11-21T08:57:51;101761.38;;;9.03;100.00
47054;BME280;32811;52.382;5.270;2023-11-21T09:00:17;101759.59;;;9.00;100.00
47054;BME280;32811;52.382;5.270;2023-11-21T09:02:45;101761.25;;;8.98;100.00
47054;BME280;32811;52.382;5.270;2023-11-21T09:05:13;101770.56;;;8.93;100.00
47054;BME280;32811;52.382;5.270;2023-11-21T09:07:41;101773.09;;;8.91;100.00
47054;BME280;32811;52.382;5.270;2023-11-21T09:10:08;101773.91;;;8.89;100.00
47054;BME280;32811;52.382;5.270;2023-11-21T09:12:37;101789.41;;;8.92;100.00
47054;BME280;32811;52.382;5.270;2023-11-21T09:15:05;101785.88;;;8.88;100.00
47054;BME280;32811;52.382;5.270;2023-11-21T09:17:33;101796.22;;;8.90;100.00
47054;BME280;32811;52.382;5.270;2023-11-21T09:20:02;101792.84;;;8.91;100.00
47054;BME280;32811;52.382;5.270;2023-11-21T09:22:32;101794.50;;;8.89;100.00
47054;BME280;32811;52.382;5.270;2023-11-21T09:25:00;101786.59;;;8.83;100.00
47054;BME280;32811;52.382;5.270;2023-11-21T09:27:26;101793.53;;;8.85;100.00
47054;BME280;32811;52.382;5.270;2023-11-21T09:29:53;101801.25;;;8.85;100.00
47054;BME280;32811;52.382;5.270;2023-11-21T09:32:20;101810.13;;;8.97;100.00
47054;BME280;32811;52.382;5.270;2023-11-21T09:34:48;101811.66;;;8.90;100.00
47054;BME280;32811;52.382;5.270;2023-11-21T09:37:16;101816.81;;;8.90;100.00
47054;BME280;32811;52.382;5.270;2023-11-21T09:39:43;101821.09;;;8.89;100.00
47054;BME280;32811;52.382;5.270;2023-11-21T09:42:10;101830.56;;;8.90;100.00
47054;BME280;32811;52.382;5.270;2023-11-21T09:44:45;101834.72;;;8.85;100.00
47054;BME280;32811;52.382;5.270;2023-11-21T09:47:15;101847.72;;;8.90;100.00
47054;BME280;32811;52.382;5.270;2023-11-21T09:49:47;101845.81;;;8.83;100.00
47054;BME280;32811;52.382;5.270;2023-11-21T09:52:24;101845.94;;;8.87;100.00
47054;BME280;32811;52.382;5.270;2023-11-21T09:54:55;101857.97;;;8.88;100.00
47054;BME280;32811;52.382;5.270;2023-11-21T09:57:25;101851.94;;;8.86;100.00
47054;BME280;32811;52.382;5.270;2023-11-21T09:59:53;101857.03;;;8.85;100.00
47054;BME280;32811;52.382;5.270;2023-11-21T10:02:27;101869.88;;;8.85;100.00
47054;BME280;32811;52.382;5.270;2023-11-21T10:04:59;101845.75;;;8.81;100.00
47054;BME280;32811;52.382;5.270;2023-11-21T10:07:27;101871.94;;;8.97;100.00
47054;BME280;32811;52.382;5.270;2023-11-21T10:09:55;101871.81;;;8.92;100.00
47054;BME280;32811;52.382;5.270;2023-11-21T10:12:23;101874.31;;;8.90;100.00
47054;BME280;32811;52.382;5.270;2023-11-21T10:14:51;101885.59;;;8.94;100.00
47054;BME280;32811;52.382;5.270;2023-11-21T10:17:20;101891.59;;;8.93;100.00
47054;BME280;32811;52.382;5.270;2023-11-21T10:19:50;101888.03;;;8.89;100.00
47054;BME280;32811;52.382;5.270;2023-11-21T10:22:17;101889.69;;;8.87;100.00
47054;BME280;32811;52.382;5.270;2023-11-21T10:24:43;101911.28;;;8.91;100.00
47054;BME280;32811;52.382;5.270;2023-11-21T10:27:19;101909.63;;;8.93;100.00
47054;BME280;32811;52.382;5.270;2023-11-21T10:29:46;101919.94;;;8.94;100.00
47054;BME280;32811;52.382;5.270;2023-11-21T10:32:12;101907.66;;;8.84;100.00
47054;BME280;32811;52.382;5.270;2023-11-21T10:34:39;101914.44;;;8.82;100.00
47054;BME280;32811;52.382;5.270;2023-11-21T10:37:14;101927.13;;;9.06;100.00
47054;BME280;32811;52.382;5.270;2023-11-21T10:39:43;101926.97;;;9.00;100.00
47054;BME280;32811;52.382;5.270;2023-11-21T10:42:12;101921.63;;;8.94;100.00
47054;BME280;32811;52.382;5.270;2023-11-21T10:44:38;101929.56;;;9.02;100.00
47054;BME280;32811;52.382;5.270;2023-11-21T10:47:08;101925.22;;;8.99;100.00
47054;BME280;32811;52.382;5.270;2023-11-21T10:49:36;101920.78;;;8.95;100.00
47054;BME280;32811;52.382;5.270;2023-11-21T10:52:04;101926.97;;;9.00;100.00
47054;BME280;32811;52.382;5.270;2023-11-21T10:54:30;101920.00;;;8.96;100.00
47054;BME280;32811;52.382;5.270;2023-11-21T10:56:59;101922.75;;;9.04;100.00
47054;BME280;32811;52.382;5.270;2023-11-21T10:59:32;101907.31;;;9.04;100.00
47054;BME280;32811;52.382;5.270;2023-11-21T11:02:01;101904.53;;;8.96;100.00
47054;BME280;32811;52.382;5.270;2023-11-21T11:04:33;101927.78;;;8.99;100.00
47054;BME280;32811;52.382;5.270;2023-11-21T11:07:08;101924.34;;;8.99;100.00
47054;BME280;32811;52.382;5.270;2023-11-21T11:09:41;101929.56;;;9.02;100.00
47054;BME280;32811;52.382;5.270;2023-11-21T11:12:14;101957.53;;;9.18;100.00
47054;BME280;32811;52.382;5.270;2023-11-21T11:14:41;101953.41;;;9.25;100.00
47054;BME280;32811;52.382;5.270;2023-11-21T11:17:10;101960.28;;;9.24;100.00
47054;BME280;32811;52.382;5.270;2023-11-21T11:19:37;101961.88;;;9.21;100.00
47054;BME280;32811;52.382;5.270;2023-11-21T11:22:24;101961.94;;;9.22;100.00
47054;BME280;32811;52.382;5.270;2023-11-21T11:25:19;101974.59;;;9.14;100.00
47054;BME280;32811;52.382;5.270;2023-11-21T11:30:39;101979.16;;;8.94;100.00
47054;BME280;32811;52.382;5.270;2023-11-21T11:33:15;101968.59;;;8.85;100.00
47054;BME280;32811;52.382;5.270;2023-11-21T11:36:00;101984.63;;;8.77;100.00
47054;BME280;32811;52.382;5.270;2023-11-21T11:38:32;101980.28;;;8.74;100.00
47054;BME280;32811;52.382;5.270;2023-11-21T11:41:04;101990.56;;;8.74;100.00
47054;BME280;32811;52.382;5.270;2023-11-21T11:43:32;102001.50;;;8.67;100.00
47054;BME280;32811;52.382;5.270;2023-11-21T11:46:02;101995.44;;;8.65;100.00
47054;BME280;32811;52.382;5.270;2023-11-21T11:48:34;101990.38;;;8.68;100.00
47054;BME280;32811;52.382;5.270;2023-11-21T11:51:02;101993.78;;;8.67;100.00
47054;BME280;32811;52.382;5.270;2023-11-21T11:53:35;101985.22;;;8.68;100.00
47054;BME280;32811;52.382;5.270;2023-11-21T11:58:50;101998.28;;;8.74;100.00
47054;BME280;32811;52.382;5.270;2023-11-21T12:01:21;102005.94;;;8.72;100.00
47054;BME280;32811;52.382;5.270;2023-11-21T12:04:27;102005.09;;;8.72;100.00
47054;BME280;32811;52.382;5.270;2023-11-21T12:07:01;102012.88;;;8.73;100.00
47054;BME280;32811;52.382;5.270;2023-11-21T12:09:30;102013.69;;;8.72;100.00
47054;BME280;32811;52.382;5.270;2023-11-21T12:11:58;102018.47;;;8.60;100.00
47054;BME280;32811;52.382;5.270;2023-11-21T12:14:25;102020.06;;;8.57;100.00
47054;BME280;32811;52.382;5.270;2023-11-21T12:16:52;102022.69;;;8.58;100.00
47054;BME280;32811;52.382;5.270;2023-11-21T12:19:19;102005.19;;;8.48;100.00
47054;BME280;32811;52.382;5.270;2023-11-21T12:21:47;102026.63;;;8.47;100.00
47054;BME280;32811;52.382;5.270;2023-11-21T12:24:15;102023.25;;;8.49;100.00
47054;BME280;32811;52.382;5.270;2023-11-21T12:26:43;102015.25;;;8.40;100.00
47054;BME280;32811;52.382;5.270;2023-11-21T12:29:10;102016.19;;;8.44;100.00
47054;BME280;32811;52.382;5.270;2023-11-21T12:31:37;102020.59;;;8.46;100.00
47054;BME280;32811;52.382;5.270;2023-11-21T12:34:04;102028.41;;;8.49;100.00
47054;BME280;32811;52.382;5.270;2023-11-21T12:36:33;102017.88;;;8.42;100.00
47054;BME280;32811;52.382;5.270;2023-11-21T12:39:01;102027.53;;;8.49;100.00
47054;BME280;32811;52.382;5.270;2023-11-21T12:41:29;102030.31;;;8.55;100.00
47054;BME280;32811;52.382;5.270;2023-11-21T12:43:57;102043.22;;;8.57;100.00
47054;BME280;32811;52.382;5.270;2023-11-21T12:46:24;102042.28;;;8.55;100.00
47054;BME280;32811;52.382;5.270;2023-11-21T12:48:54;102047.25;;;8.48;100.00
47054;BME280;32811;52.382;5.270;2023-11-21T12:51:21;102056.84;;;8.54;100.00
47054;BME280;32811;52.382;5.270;2023-11-21T12:53:48;102051.56;;;8.49;100.00
47054;BME280;32811;52.382;5.270;2023-11-21T12:56:17;102069.78;;;8.56;100.00
47054;BME280;32811;52.382;5.270;2023-11-21T12:58:45;102074.88;;;8.54;100.00
47054;BME280;32811;52.382;5.270;2023-11-21T13:01:14;102083.28;;;8.48;100.00